sensor_id;sensor_type;location;lat;lon;timestamp;P1;P2;P0
76043;PMS7003;64740;34.694;33.088;2023-12-20T00:01:34;5.5;4.3;2.3
76043;PMS7003;64740;34.694;33.088;2023-12-20T00:07:15;3.9;3.3;1.9
76043;PMS7003;64740;34.694;33.088;2023-12-20T00:11:54;5;4.2;2.6
76043;PMS7003;64740;34.694;33.088;2023-12-20T00:17:14;6.1;4.3;2.5
76043;PMS7003;64740;34.694;33.088;2023-12-20T00:22:04;5.1;4.1;2.5
76043;PMS7003;64740;34.694;33.088;2023-12-20T00:26:34;6.7;4.9;2.8
76043;PMS7003;64740;34.694;33.088;2023-12-20T00:32:12;6;4.6;3
76043;PMS7003;64740;34.694;33.088;2023-12-20T00:36:36;6.1;4.6;2.9
76043;PMS7003;64740;34.694;33.088;2023-12-20T00:42:00;5.3;4.5;2.6
76043;PMS7003;64740;34.694;33.088;2023-12-20T00:46:34;5.8;5;3.1
76043;PMS7003;64740;34.694;33.088;2023-12-20T00:51:40;6.3;5.2;3.1
76043;PMS7003;64740;34.694;33.088;2023-12-20T00:57:12;5.5;4.6;2.7
76043;PMS7003;64740;34.694;33.088;2023-12-20T01:02:04;7.1;5.4;3.1
76043;PMS7003;64740;34.694;33.088;2023-12-20T01:07:14;7;5.2;2.9
76043;PMS7003;64740;34.694;33.088;2023-12-20T01:12:05;6.2;5.2;2.8
76043;PMS7003;64740;34.694;33.088;2023-12-20T01:16:50;7.3;5.5;3.3
76043;PMS7003;64740;34.694;33.088;2023-12-20T01:22:14;6.8;5.8;3.7
76043;PMS7003;64740;34.694;33.088;2023-12-20T01:26:44;7.5;6.2;3.7
76043;PMS7003;64740;34.694;33.088;2023-12-20T01:31:42;6.8;5.3;3.5
76043;PMS7003;64740;34.694;33.088;2023-12-20T01:36:42;7.5;5.8;3.1
76043;PMS7003;64740;34.694;33.088;2023-12-20T01:41:40;7.7;6.1;3.6
76043;PMS7003;64740;34.694;33.088;2023-12-20T01:47:14;7.4;5.9;3.8
76043;PMS7003;64740;34.694;33.088;2023-12-20T01:51:42;7.4;5.9;3.4
76043;PMS7003;64740;34.694;33.088;2023-12-20T01:57:12;7.2;5.9;3.7
76043;PMS7003;64740;34.694;33.088;2023-12-20T02:02:04;8.7;6.7;4.3
76043;PMS7003;64740;34.694;33.088;2023-12-20T02:06:34;7.8;6.4;3.8
76043;PMS7003;64740;34.694;33.088;2023-12-20T02:12:14;8.4;6.8;4
76043;PMS7003;64740;34.694;33.088;2023-12-20T02:17:04;8.1;6.6;3.9
76043;PMS7003;64740;34.694;33.088;2023-12-20T02:22:14;8.2;6.5;3.9
76043;PMS7003;64740;34.694;33.088;2023-12-20T02:26:42;7.2;6;3.3
76043;PMS7003;64740;34.694;33.088;2023-12-20T02:31:52;6.4;5.5;3.3
76043;PMS7003;64740;34.694;33.088;2023-12-20T02:37:04;7.6;5.8;3.5
76043;PMS7003;64740;34.694;33.088;2023-12-20T02:42:14;6.7;5.7;3.4
76043;PMS7003;64740;34.694;33.088;2023-12-20T02:46:34;6.2;5.6;3.5
76043;PMS7003;64740;34.694;33.088;2023-12-20T02:51:36;7;5.7;3.6
76043;PMS7003;64740;34.694;33.088;2023-12-20T02:56:50;7.4;5.6;3.2
76043;PMS7003;64740;34.694;33.088;2023-12-20T03:01:50;7.3;5.8;3.7
76043;PMS7003;64740;34.694;33.088;2023-12-20T03:07:14;7.3;5.3;3.2
76043;PMS7003;64740;34.694;33.088;2023-12-20T03:11:34;7.6;6.3;3.8
76043;PMS7003;64740;34.694;33.088;2023-12-20T03:16:46;7.4;5.8;3.3
76043;PMS7003;64740;34.694;33.088;2023-12-20T03:21:54;10.9;8.3;4.4
76043;PMS7003;64740;34.694;33.088;2023-12-20T03:27:04;8;6.1;3.8
76043;PMS7003;64740;34.694;33.088;2023-12-20T03:32:14;8.1;5.9;3.7
76043;PMS7003;64740;34.694;33.088;2023-12-20T03:37:05;8.4;6.6;4
76043;PMS7003;64740;34.694;33.088;2023-12-20T03:42:01;8;6.9;4.2
76043;PMS7003;64740;34.694;33.088;2023-12-20T03:46:50;9.4;7.6;4.5
76043;PMS7003;64740;34.694;33.088;2023-12-20T03:52:16;9;7.6;4.5
76043;PMS7003;64740;34.694;33.088;2023-12-20T03:57:14;9.1;7.2;4.3
76043;PMS7003;64740;34.694;33.088;2023-12-20T04:01:49;9.1;7.2;4.2
76043;PMS7003;64740;34.694;33.088;2023-12-20T04:06:51;8.8;6.8;4.3
76043;PMS7003;64740;34.694;33.088;2023-12-20T04:11:40;8.7;7.3;4.5
76043;PMS7003;64740;34.694;33.088;2023-12-20T04:16:37;13.6;9.6;5.4
76043;PMS7003;64740;34.694;33.088;2023-12-20T04:22:15;10.7;8.8;5.4
76043;PMS7003;64740;34.694;33.088;2023-12-20T04:27:05;9.8;7.9;4.8
76043;PMS7003;64740;34.694;33.088;2023-12-20T04:32:01;10.5;8.3;5.2
76043;PMS7003;64740;34.694;33.088;2023-12-20T04:36:43;10.6;8.3;5.2
76043;PMS7003;64740;34.694;33.088;2023-12-20T04:41:50;10.2;8.8;5.2
76043;PMS7003;64740;34.694;33.088;2023-12-20T04:47:15;10.3;8.7;5.5
76043;PMS7003;64740;34.694;33.088;2023-12-20T04:51:35;12.8;9.4;5.8
76043;PMS7003;64740;34.694;33.088;2023-12-20T04:56:42;11.7;10.1;6
76043;PMS7003;64740;34.694;33.088;2023-12-20T05:01:47;10.9;8.5;5.7
76043;PMS7003;64740;34.694;33.088;2023-12-20T05:07:03;12.2;9.7;5.6
76043;PMS7003;64740;34.694;33.088;2023-12-20T05:12:15;13.3;10.9;6.5
76043;PMS7003;64740;34.694;33.088;2023-12-20T05:16:43;11.3;8.5;5.4
76043;PMS7003;64740;34.694;33.088;2023-12-20T05:21:43;9.6;8;4.7
76043;PMS7003;64740;34.694;33.088;2023-12-20T05:26:35;11.2;9.7;6.1
76043;PMS7003;64740;34.694;33.088;2023-12-20T05:31:51;10.8;9.1;5.6
76043;PMS7003;64740;34.694;33.088;2023-12-20T05:37:15;11.4;9.1;5.5
76043;PMS7003;64740;34.694;33.088;2023-12-20T05:41:53;12.7;9.2;5.4
76043;PMS7003;64740;34.694;33.088;2023-12-20T05:47:15;11.4;8.2;5.2
76043;PMS7003;64740;34.694;33.088;2023-12-20T05:51:41;8.2;6.5;4.1
76043;PMS7003;64740;34.694;33.088;2023-12-20T05:57:05;8.1;6.7;4.2
76043;PMS7003;64740;34.694;33.088;2023-12-20T06:01:57;7;5.3;3.1
76043;PMS7003;64740;34.694;33.088;2023-12-20T06:07:05;5.7;4.9;2.8
76043;PMS7003;64740;34.694;33.088;2023-12-20T06:12:15;5.8;4.7;2.7
76043;PMS7003;64740;34.694;33.088;2023-12-20T06:16:35;6.1;4.9;2.7
76043;PMS7003;64740;34.694;33.088;2023-12-20T06:21:35;5.4;4.6;2.9
76043;PMS7003;64740;34.694;33.088;2023-12-20T06:27:15;5.6;4.8;2.7
76043;PMS7003;64740;34.694;33.088;2023-12-20T06:31:35;6.4;4.7;2.7
76043;PMS7003;64740;34.694;33.088;2023-12-20T06:36:35;6.2;5.3;3.1
76043;PMS7003;64740;34.694;33.088;2023-12-20T06:41:35;6.8;5.3;3.2
76043;PMS7003;64740;34.694;33.088;2023-12-20T06:47:05;6.6;5.8;3.3
76043;PMS7003;64740;34.694;33.088;2023-12-20T06:52:07;8.2;6.1;3.7
76043;PMS7003;64740;34.694;33.088;2023-12-20T06:56:51;7.2;5.8;3.7
76043;PMS7003;64740;34.694;33.088;2023-12-20T07:01:59;7.1;6;3.7
76043;PMS7003;64740;34.694;33.088;2023-12-20T07:06:35;8.7;6.3;3.9
76043;PMS7003;64740;34.694;33.088;2023-12-20T07:11:51;7;6;3.8
76043;PMS7003;64740;34.694;33.088;2023-12-20T07:17:07;6.4;5.6;3.3
76043;PMS7003;64740;34.694;33.088;2023-12-20T07:21:57;7.3;6.1;3.6
76043;PMS7003;64740;34.694;33.088;2023-12-20T07:26:43;7.8;6.5;4
76043;PMS7003;64740;34.694;33.088;2023-12-20T07:32:07;8.7;7.9;4.6
76043;PMS7003;64740;34.694;33.088;2023-12-20T07:37:05;9.2;8.2;5
76043;PMS7003;64740;34.694;33.088;2023-12-20T07:42:15;9.9;7.7;4.9
76043;PMS7003;64740;34.694;33.088;2023-12-20T07:46:49;10.5;8.4;5.3
76043;PMS7003;64740;34.694;33.088;2023-12-20T07:51:57;12.1;9.8;6.1
76043;PMS7003;64740;34.694;33.088;2023-12-20T07:56:53;11.5;9.6;6
76043;PMS7003;64740;34.694;33.088;2023-12-20T08:01:41;11.9;10;6
76043;PMS7003;64740;34.694;33.088;2023-12-20T08:07:17;12.4;10.9;6.8
76043;PMS7003;64740;34.694;33.088;2023-12-20T08:11:35;11.6;10.3;6.6
76043;PMS7003;64740;34.694;33.088;2023-12-20T08:16:43;11.8;9.9;6.5
76043;PMS7003;64740;34.694;33.088;2023-12-20T08:22:17;12.7;10.5;6.5
76043;PMS7003;64740;34.694;33.088;2023-12-20T08:27:05;13.2;11;6.2
76043;PMS7003;64740;34.694;33.088;2023-12-20T08:32:05;12.1;10.6;6.3
76043;PMS7003;64740;34.694;33.088;2023-12-20T08:36:35;12.9;10.5;7
76043;PMS7003;64740;34.694;33.088;2023-12-20T08:42:01;12.7;10.3;6.4
76043;PMS7003;64740;34.694;33.088;2023-12-20T08:47:17;10.2;8.3;4.7
76043;PMS7003;64740;34.694;33.088;2023-12-20T08:51:49;12.5;10.2;6.4
76043;PMS7003;64740;34.694;33.088;2023-12-20T08:57:15;12.3;10.7;6.9
76043;PMS7003;64740;34.694;33.088;2023-12-20T09:02:05;12.8;10.7;6.8
76043;PMS7003;64740;34.694;33.088;2023-12-20T09:06:43;13.7;11.5;7.5
76043;PMS7003;64740;34.694;33.088;2023-12-20T09:11:57;13.9;10.9;6.7
76043;PMS7003;64740;34.694;33.088;2023-12-20T09:16:57;13.4;10.9;6.6
76043;PMS7003;64740;34.694;33.088;2023-12-20T09:22:07;12;10.7;6.8
76043;PMS7003;64740;34.694;33.088;2023-12-20T09:26:43;12.1;10.5;6.7
76043;PMS7003;64740;34.694;33.088;2023-12-20T09:31:45;15.1;12.9;8.5
76043;PMS7003;64740;34.694;33.088;2023-12-20T09:37:15;18.8;16.1;9.9
76043;PMS7003;64740;34.694;33.088;2023-12-20T09:41:36;17.4;14.5;9.2
76043;PMS7003;64740;34.694;33.088;2023-12-20T09:47:15;12.6;11.8;7.2
76043;PMS7003;64740;34.694;33.088;2023-12-20T09:52:17;14.3;12.3;8.1
76043;PMS7003;64740;34.694;33.088;2023-12-20T09:56:43;16.3;14;8.4
76043;PMS7003;64740;34.694;33.088;2023-12-20T10:02:15;14.4;12;8
76043;PMS7003;64740;34.694;33.088;2023-12-20T10:07:05;13;11.3;7.3
76043;PMS7003;64740;34.694;33.088;2023-12-20T10:12:17;12.1;10;6.9
76043;PMS7003;64740;34.694;33.088;2023-12-20T10:16:51;12.7;11;7
76043;PMS7003;64740;34.694;33.088;2023-12-20T10:22:01;14.4;11;6.8
76043;PMS7003;64740;34.694;33.088;2023-12-20T10:27:17;14.2;12.3;7.6
76043;PMS7003;64740;34.694;33.088;2023-12-20T10:32:21;14.2;12.5;8.1
76043;PMS7003;64740;34.694;33.088;2023-12-20T10:37:24;14.1;11.5;7.2
76043;PMS7003;64740;34.694;33.088;2023-12-20T10:41:47;12;11;7.3
76043;PMS7003;64740;34.694;33.088;2023-12-20T10:46:37;11.1;9.9;6
76043;PMS7003;64740;34.694;33.088;2023-12-20T10:52:17;11.6;9.5;6.1
76043;PMS7003;64740;34.694;33.088;2023-12-20T10:57:05;11.2;9.1;5.6
76043;PMS7003;64740;34.694;33.088;2023-12-20T11:02:07;10.8;9.1;5.7
76043;PMS7003;64740;34.694;33.088;2023-12-20T11:06:51;12.5;9.6;5.8
76043;PMS7003;64740;34.694;33.088;2023-12-20T11:12:04;9.8;7.7;4.4
76043;PMS7003;64740;34.694;33.088;2023-12-20T11:16:51;11;9.1;5.6
76043;PMS7003;64740;34.694;33.088;2023-12-20T11:21:37;10.1;8.8;5.5
76043;PMS7003;64740;34.694;33.088;2023-12-20T11:27:17;6.9;5.6;3.5
76043;PMS7003;64740;34.694;33.088;2023-12-20T11:31:43;9;7.7;4.8
76043;PMS7003;64740;34.694;33.088;2023-12-20T11:36:56;9.6;8;5
76043;PMS7003;64740;34.694;33.088;2023-12-20T11:41:55;9;7.9;4.7
76043;PMS7003;64740;34.694;33.088;2023-12-20T11:46:47;7.7;6.9;4.2
76043;PMS7003;64740;34.694;33.088;2023-12-20T11:51:51;9.5;7.7;4.9
76043;PMS7003;64740;34.694;33.088;2023-12-20T11:57:17;9;7.8;4.9
76043;PMS7003;64740;34.694;33.088;2023-12-20T12:02:17;8.6;7.2;4.5
76043;PMS7003;64740;34.694;33.088;2023-12-20T12:07:01;8.7;7.4;4.7
76043;PMS7003;64740;34.694;33.088;2023-12-20T12:11:43;9.2;7.8;5
76043;PMS7003;64740;34.694;33.088;2023-12-20T12:16:35;8;6.9;4.3
76043;PMS7003;64740;34.694;33.088;2023-12-20T12:21:43;8.7;7.1;4.4
76043;PMS7003;64740;34.694;33.088;2023-12-20T12:26:41;8.8;7.2;4.8
76043;PMS7003;64740;34.694;33.088;2023-12-20T12:32:09;8.2;7.1;4.3
76043;PMS7003;64740;34.694;33.088;2023-12-20T12:36:35;8.3;6.9;4.1
76043;PMS7003;64740;34.694;33.088;2023-12-20T12:42:03;7.8;6.7;3.9
76043;PMS7003;64740;34.694;33.088;2023-12-20T12:47:09;8.8;7.6;4.8
76043;PMS7003;64740;34.694;33.088;2023-12-20T12:52:03;8.1;7.1;4.7
76043;PMS7003;64740;34.694;33.088;2023-12-20T12:57:01;9.3;7.6;4.6
76043;PMS7003;64740;34.694;33.088;2023-12-20T13:01:35;9.2;7.8;5
76043;PMS7003;64740;34.694;33.088;2023-12-20T13:06:43;7.9;7.2;4.4
76043;PMS7003;64740;34.694;33.088;2023-12-20T13:11:55;9.1;7.7;5
76043;PMS7003;64740;34.694;33.088;2023-12-20T13:16:35;9.7;8.6;5.2
76043;PMS7003;64740;34.694;33.088;2023-12-20T13:22:17;10.5;8.2;5.3
76043;PMS7003;64740;34.694;33.088;2023-12-20T13:27:17;10.6;8.6;5.2
76043;PMS7003;64740;34.694;33.088;2023-12-20T13:31:53;11.1;9.3;5.7
76043;PMS7003;64740;34.694;33.088;2023-12-20T13:37:15;11.7;10;6.3
76043;PMS7003;64740;34.694;33.088;2023-12-20T13:41:53;11.6;9.8;5.8
76043;PMS7003;64740;34.694;33.088;2023-12-20T13:47:03;13.7;11.2;6.6
76043;PMS7003;64740;34.694;33.088;2023-12-20T13:51:49;11.5;9.8;6
76043;PMS7003;64740;34.694;33.088;2023-12-20T13:56:35;12.6;10.7;6.6
76043;PMS7003;64740;34.694;33.088;2023-12-20T14:01:57;12.5;10.8;7
76043;PMS7003;64740;34.694;33.088;2023-12-20T14:06:43;11.8;10.4;6.2
76043;PMS7003;64740;34.694;33.088;2023-12-20T14:12:15;13.4;10.7;6.7
76043;PMS7003;64740;34.694;33.088;2023-12-20T14:16:55;12.4;9.8;5.9
76043;PMS7003;64740;34.694;33.088;2023-12-20T14:22:01;12.7;10.8;6.6
76043;PMS7003;64740;34.694;33.088;2023-12-20T14:27:17;12.6;10.4;6.4
76043;PMS7003;64740;34.694;33.088;2023-12-20T14:32:01;12.6;10.5;6.5
76043;PMS7003;64740;34.694;33.088;2023-12-20T14:36:43;13;10.8;6.6
76043;PMS7003;64740;34.694;33.088;2023-12-20T14:41:35;13.9;11.7;7.1
76043;PMS7003;64740;34.694;33.088;2023-12-20T14:46:35;12.3;10.7;6.7
76043;PMS7003;64740;34.694;33.088;2023-12-20T14:51:35;12.7;10.6;6.3
76043;PMS7003;64740;34.694;33.088;2023-12-20T14:56:59;12.8;10.8;6.6
76043;PMS7003;64740;34.694;33.088;2023-12-20T15:02:17;13.4;10.7;6.9
76043;PMS7003;64740;34.694;33.088;2023-12-20T15:06:35;15;12.3;8.1
76043;PMS7003;64740;34.694;33.088;2023-12-20T15:11:37;13.7;12.2;6.8
76043;PMS7003;64740;34.694;33.088;2023-12-20T15:17:15;15.9;12.7;8.1
76043;PMS7003;64740;34.694;33.088;2023-12-20T15:21:53;15.8;12.9;8.7
76043;PMS7003;64740;34.694;33.088;2023-12-20T15:27:03;15.4;12.8;8.4
76043;PMS7003;64740;34.694;33.088;2023-12-20T15:31:43;14.9;12.9;8.2
76043;PMS7003;64740;34.694;33.088;2023-12-20T15:36:42;15.3;12.3;7.8
76043;PMS7003;64740;34.694;33.088;2023-12-20T15:41:35;13.6;11.3;7.3
76043;PMS7003;64740;34.694;33.088;2023-12-20T15:46:43;23.6;19.3;12.2
76043;PMS7003;64740;34.694;33.088;2023-12-20T15:52:13;17;14.9;9.4
76043;PMS7003;64740;34.694;33.088;2023-12-20T15:56:43;14.1;12;7.7
76043;PMS7003;64740;34.694;33.088;2023-12-20T16:01:59;13.4;11;7.2
76043;PMS7003;64740;34.694;33.088;2023-12-20T16:07:03;15.4;12.4;7.5
76043;PMS7003;64740;34.694;33.088;2023-12-20T16:11:37;14.5;12;7.2
76043;PMS7003;64740;34.694;33.088;2023-12-20T16:17:13;22.5;18.2;10.8
76043;PMS7003;64740;34.694;33.088;2023-12-20T16:21:51;18.7;16.1;10
76043;PMS7003;64740;34.694;33.088;2023-12-20T16:26:51;18;14.7;9.1
76043;PMS7003;64740;34.694;33.088;2023-12-20T16:31:43;15.1;13.8;8.5
76043;PMS7003;64740;34.694;33.088;2023-12-20T16:37:07;17.1;13.5;8.6
76043;PMS7003;64740;34.694;33.088;2023-12-20T16:42:04;23.3;19.8;12.9
76043;PMS7003;64740;34.694;33.088;2023-12-20T16:47:19;22.3;18.3;11.2
76043;PMS7003;64740;34.694;33.088;2023-12-20T16:52:07;24.8;20;12.2
76043;PMS7003;64740;34.694;33.088;2023-12-20T16:57:03;22.7;19.5;12.2
76043;PMS7003;64740;34.694;33.088;2023-12-20T17:02:15;16.5;13.4;8.5
76043;PMS7003;64740;34.694;33.088;2023-12-20T17:07:17;20.9;17.1;10.2
76043;PMS7003;64740;34.694;33.088;2023-12-20T17:11:35;23.1;18.9;12
76043;PMS7003;64740;34.694;33.088;2023-12-20T17:16:35;20.1;17.6;11.1
76043;PMS7003;64740;34.694;33.088;2023-12-20T17:22:15;15.1;13.5;8.7
76043;PMS7003;64740;34.694;33.088;2023-12-20T17:26:55;15.9;13.6;8.5
76043;PMS7003;64740;34.694;33.088;2023-12-20T17:32:07;16.2;13.5;8.6
76043;PMS7003;64740;34.694;33.088;2023-12-20T17:36:43;15.7;13.7;8.6
76043;PMS7003;64740;34.694;33.088;2023-12-20T17:42:17;16.7;13.4;8.5
76043;PMS7003;64740;34.694;33.088;2023-12-20T17:47:07;14.3;11.9;7.7
76043;PMS7003;64740;34.694;33.088;2023-12-20T17:51:35;14.5;12.6;8.5
76043;PMS7003;64740;34.694;33.088;2023-12-20T17:57:19;16.3;14.4;9.2
76043;PMS7003;64740;34.694;33.088;2023-12-20T18:01:59;23.5;20.1;12.5
76043;PMS7003;64740;34.694;33.088;2023-12-20T18:06:35;17.3;13.6;8.8
76043;PMS7003;64740;34.694;33.088;2023-12-20T18:11:47;21.6;17.9;11.6
76043;PMS7003;64740;34.694;33.088;2023-12-20T18:16:35;16.9;14.2;9.6
76043;PMS7003;64740;34.694;33.088;2023-12-20T18:21:55;18.7;16;9.9
76043;PMS7003;64740;34.694;33.088;2023-12-20T18:26:35;21.6;18.2;11.3
76043;PMS7003;64740;34.694;33.088;2023-12-20T18:32:13;27.2;23.2;14.1
76043;PMS7003;64740;34.694;33.088;2023-12-20T18:37:07;31.6;25.7;16.3
76043;PMS7003;64740;34.694;33.088;2023-12-20T18:41:51;22.3;19.4;12.6
76043;PMS7003;64740;34.694;33.088;2023-12-20T18:47:17;20.1;17.5;11.4
76043;PMS7003;64740;34.694;33.088;2023-12-20T18:51:43;21.2;19.1;12.3
76043;PMS7003;64740;34.694;33.088;2023-12-20T18:56:49;26.6;21.7;14.3
76043;PMS7003;64740;34.694;33.088;2023-12-20T19:01:57;25.6;21.6;14
76043;PMS7003;64740;34.694;33.088;2023-12-20T19:07:05;22;19.2;12.5
76043;PMS7003;64740;34.694;33.088;2023-12-20T19:12:05;22.9;20.2;12.9
76043;PMS7003;64740;34.694;33.088;2023-12-20T19:16:47;23.3;21.3;13.4
76043;PMS7003;64740;34.694;33.088;2023-12-20T19:22:13;22.2;19.7;12.7
76043;PMS7003;64740;34.694;33.088;2023-12-20T19:27:10;22.9;19.6;12.7
76043;PMS7003;64740;34.694;33.088;2023-12-20T19:32:15;28.1;24.2;15.6
76043;PMS7003;64740;34.694;33.088;2023-12-20T19:37:19;43.7;34.1;21.4
76043;PMS7003;64740;34.694;33.088;2023-12-20T19:41:35;34.8;29.7;18.8
76043;PMS7003;64740;34.694;33.088;2023-12-20T19:47:11;28.1;24;15.4
76043;PMS7003;64740;34.694;33.088;2023-12-20T19:51:43;31.1;27;17.2
76043;PMS7003;64740;34.694;33.088;2023-12-20T19:56:47;24;19.8;13.1
76043;PMS7003;64740;34.694;33.088;2023-12-20T20:01:59;24.2;21.4;13.8
76043;PMS7003;64740;34.694;33.088;2023-12-20T20:06:57;24.7;22;13.8
76043;PMS7003;64740;34.694;33.088;2023-12-20T20:12:17;23;20.3;13.1
76043;PMS7003;64740;34.694;33.088;2023-12-20T20:16:57;24.7;21.5;13.5
76043;PMS7003;64740;34.694;33.088;2023-12-20T20:21:35;21.8;18.5;11.5
76043;PMS7003;64740;34.694;33.088;2023-12-20T20:27:17;23.6;19.6;11.8
76043;PMS7003;64740;34.694;33.088;2023-12-20T20:31:51;26.5;22.8;14.1
76043;PMS7003;64740;34.694;33.088;2023-12-20T20:36:41;25.8;22.2;13.6
76043;PMS7003;64740;34.694;33.088;2023-12-20T20:41:43;25.5;22.2;13.5
76043;PMS7003;64740;34.694;33.088;2023-12-20T20:46:43;28.5;23.7;15
76043;PMS7003;64740;34.694;33.088;2023-12-20T20:52:19;27.5;22.5;14.1
76043;PMS7003;64740;34.694;33.088;2023-12-20T20:57:07;26.6;21.8;14
76043;PMS7003;64740;34.694;33.088;2023-12-20T21:01:43;25.4;21.7;13.7
76043;PMS7003;64740;34.694;33.088;2023-12-20T21:06:37;24;21;13
76043;PMS7003;64740;34.694;33.088;2023-12-20T21:11:59;27.8;23;13.8
76043;PMS7003;64740;34.694;33.088;2023-12-20T21:17:13;27.8;24;14.3
76043;PMS7003;64740;34.694;33.088;2023-12-20T21:21:51;27.6;23;14.5
76043;PMS7003;64740;34.694;33.088;2023-12-20T21:26:51;28.1;23.2;14.6
76043;PMS7003;64740;34.694;33.088;2023-12-20T21:32:07;28;22.5;13.9
76043;PMS7003;64740;34.694;33.088;2023-12-20T21:36:55;25.5;22.8;14.4
76043;PMS7003;64740;34.694;33.088;2023-12-20T21:42:17;24.6;21;14
76043;PMS7003;64740;34.694;33.088;2023-12-20T21:47:07;25.3;22.1;14.2
76043;PMS7003;64740;34.694;33.088;2023-12-20T21:52:01;25.2;21.1;13.7
76043;PMS7003;64740;34.694;33.088;2023-12-20T21:57:05;24.5;21.2;13.5
76043;PMS7003;64740;34.694;33.088;2023-12-20T22:01:49;25.2;21.8;14.3
76043;PMS7003;64740;34.694;33.088;2023-12-20T22:07:15;23.1;20.3;13.2
76043;PMS7003;64740;34.694;33.088;2023-12-20T22:12:19;21.8;19.2;12.4
76043;PMS7003;64740;34.694;33.088;2023-12-20T22:16:35;19.8;17.2;10.9
76043;PMS7003;64740;34.694;33.088;2023-12-20T22:21:43;20.9;18.1;11.1
76043;PMS7003;64740;34.694;33.088;2023-12-20T22:26:47;20.3;18.3;11.9
76043;PMS7003;64740;34.694;33.088;2023-12-20T22:32:19;19.6;17;10.9
76043;PMS7003;64740;34.694;33.088;2023-12-20T22:37:07;20.5;17.1;10.4
76043;PMS7003;64740;34.694;33.088;2023-12-20T22:41:43;18.6;16.2;9.9
76043;PMS7003;64740;34.694;33.088;2023-12-20T22:46:57;19.5;16.5;10.6
76043;PMS7003;64740;34.694;33.088;2023-12-20T22:52:19;19.8;16.7;10.2
76043;PMS7003;64740;34.694;33.088;2023-12-20T22:57:13;18.8;15.6;9.9
76043;PMS7003;64740;34.694;33.088;2023-12-20T23:01:41;18.5;16.5;10
76043;PMS7003;64740;34.694;33.088;2023-12-20T23:06:49;20;16.6;10.6
76043;PMS7003;64740;34.694;33.088;2023-12-20T23:11:35;18;16;10.5
76043;PMS7003;64740;34.694;33.088;2023-12-20T23:16:36;18.7;16.3;10.1
76043;PMS7003;64740;34.694;33.088;2023-12-20T23:22:19;18.2;16.4;10
76043;PMS7003;64740;34.694;33.088;2023-12-20T23:27:09;18.5;15.5;9.8
76043;PMS7003;64740;34.694;33.088;2023-12-20T23:31:49;17.6;14.4;9.2
76043;PMS7003;64740;34.694;33.088;2023-12-20T23:37:05;17.6;15.5;10.2
76043;PMS7003;64740;34.694;33.088;2023-12-20T23:42:05;18.2;15.1;9.3
76043;PMS7003;64740;34.694;33.088;2023-12-20T23:47:17;17.9;15.5;9.5
76043;PMS7003;64740;34.694;33.088;2023-12-20T23:51:41;18.7;15.5;9.7
76043;PMS7003;64740;34.694;33.088;2023-12-20T23:56:43;16.6;14.3;9.4
